createdAt,value
2017-07-18T00:00:40.400Z,22.33
2017-07-18T00:03:06.888Z,22.13
2017-07-18T00:05:33.410Z,21.83
2017-07-18T00:07:59.970Z,21.98
2017-07-18T00:10:26.404Z,23.10
2017-07-18T00:12:53.595Z,23.62
2017-07-18T00:15:20.047Z,23.37
2017-07-18T00:17:46.609Z,22.87
2017-07-18T00:20:13.069Z,22.83
2017-07-18T00:22:39.534Z,22.83
2017-07-18T00:25:06.080Z,21.60
2017-07-18T00:27:32.653Z,22.58
2017-07-18T00:29:59.148Z,23.00
2017-07-18T00:32:25.617Z,23.20
2017-07-18T00:34:52.077Z,22.98
2017-07-18T00:37:18.671Z,21.58
2017-07-18T00:39:45.171Z,25.12
2017-07-18T00:42:11.788Z,23.30
2017-07-18T00:44:38.344Z,23.30
2017-07-18T00:47:04.780Z,23.20
2017-07-18T00:49:32.002Z,22.73
2017-07-18T00:51:58.533Z,22.85
2017-07-18T00:54:25.092Z,22.10
2017-07-18T00:56:51.568Z,21.70
2017-07-18T00:59:17.995Z,20.62
2017-07-18T01:01:45.275Z,22.00
2017-07-18T01:04:12.244Z,24.70
2017-07-18T01:06:38.808Z,25.12
2017-07-18T01:09:05.492Z,22.73
2017-07-18T01:11:31.985Z,24.02
2017-07-18T01:13:58.449Z,23.62
2017-07-18T01:16:24.900Z,26.65
2017-07-18T01:18:51.494Z,24.83
2017-07-18T01:21:17.971Z,25.40
2017-07-18T01:23:45.035Z,22.73
2017-07-18T01:26:11.582Z,24.95
2017-07-18T01:28:38.041Z,24.23
2017-07-18T01:31:04.592Z,23.70
2017-07-18T01:33:31.151Z,23.10
2017-07-18T01:35:57.716Z,22.52
2017-07-18T01:38:24.198Z,23.20
2017-07-18T01:40:50.681Z,23.08
2017-07-18T01:43:17.281Z,24.17
2017-07-18T01:45:43.772Z,23.48
2017-07-18T01:48:10.273Z,23.38
2017-07-18T01:50:37.527Z,24.08
2017-07-18T01:53:04.029Z,23.38
2017-07-18T01:55:30.585Z,22.47
2017-07-18T01:58:11.989Z,23.10
2017-07-18T02:00:38.531Z,26.20
2017-07-18T02:03:05.067Z,22.30
2017-07-18T02:05:32.364Z,22.77
2017-07-18T02:07:58.922Z,22.83
2017-07-18T02:10:25.481Z,22.95
2017-07-18T02:12:51.924Z,22.98
2017-07-18T02:15:18.496Z,22.95
2017-07-18T02:17:45.053Z,22.40
2017-07-18T02:20:11.562Z,23.23
2017-07-18T02:22:38.027Z,23.27
2017-07-18T02:25:04.528Z,22.90
2017-07-18T02:27:31.186Z,24.10
2017-07-18T02:29:57.747Z,22.85
2017-07-18T02:32:24.233Z,22.73
2017-07-18T02:34:50.741Z,22.70
2017-07-18T02:37:18.036Z,21.98
2017-07-18T02:39:44.487Z,22.20
2017-07-18T02:42:10.934Z,21.75
2017-07-18T02:44:38.240Z,23.05
2017-07-18T02:47:04.778Z,24.83
2017-07-18T02:49:31.336Z,22.30
2017-07-18T02:51:57.895Z,23.40
2017-07-18T02:54:24.460Z,23.03
2017-07-18T02:56:51.044Z,21.47
2017-07-18T02:59:17.557Z,22.27
2017-07-18T03:01:44.845Z,22.83
2017-07-18T03:04:11.300Z,22.08
2017-07-18T03:06:37.785Z,21.90
2017-07-18T03:09:04.324Z,23.42
2017-07-18T03:11:30.978Z,21.90
2017-07-18T03:13:57.500Z,22.20
2017-07-18T03:16:23.991Z,22.48
2017-07-18T03:18:50.431Z,22.33
2017-07-18T03:21:17.720Z,22.40
2017-07-18T03:23:44.435Z,23.10
2017-07-18T03:26:10.878Z,22.20
2017-07-18T03:28:37.342Z,22.55
2017-07-18T03:31:03.862Z,22.58
2017-07-18T03:33:30.410Z,22.40
2017-07-18T03:35:56.865Z,24.65
2017-07-18T03:38:23.531Z,22.20
2017-07-18T03:40:49.999Z,23.90
2017-07-18T03:43:16.550Z,20.92
2017-07-18T03:45:42.991Z,21.37
2017-07-18T03:48:09.452Z,23.48
2017-07-18T03:50:35.918Z,22.43
2017-07-18T03:53:02.395Z,21.97
2017-07-18T03:55:29.758Z,22.05
2017-07-18T03:57:56.213Z,22.17
2017-07-18T04:00:22.710Z,21.45
2017-07-18T04:02:49.317Z,21.02
2017-07-18T04:05:15.875Z,20.10
2017-07-18T04:07:42.323Z,20.30
2017-07-18T04:10:09.613Z,17.50
2017-07-18T04:12:36.521Z,21.42
2017-07-18T04:15:03.132Z,21.05
2017-07-18T04:17:29.695Z,28.17
2017-07-18T04:19:56.154Z,21.48
2017-07-18T04:22:22.631Z,20.37
2017-07-18T04:24:49.131Z,27.25
2017-07-18T04:27:15.584Z,18.50
2017-07-18T04:29:42.055Z,19.00
2017-07-18T04:32:16.215Z,17.92
2017-07-18T04:34:42.665Z,18.70
2017-07-18T04:37:09.215Z,19.90
2017-07-18T04:39:35.712Z,21.50
2017-07-18T04:42:02.818Z,19.10
2017-07-18T04:44:30.221Z,18.60
2017-07-18T04:46:56.674Z,18.37
2017-07-18T04:49:23.140Z,18.80
2017-07-18T04:51:49.691Z,17.95
2017-07-18T04:54:16.249Z,17.12
2017-07-18T04:56:42.688Z,16.58
2017-07-18T04:59:09.885Z,16.42
2017-07-18T05:01:36.346Z,12.30
2017-07-18T05:04:02.890Z,11.75
2017-07-18T05:06:29.448Z,11.60
2017-07-18T05:08:56.850Z,11.90
2017-07-18T05:11:23.295Z,12.35
2017-07-18T05:13:49.840Z,11.05
2017-07-18T05:16:16.294Z,9.93
2017-07-18T05:18:42.860Z,9.77
2017-07-18T05:21:09.311Z,8.98
2017-07-18T05:23:35.772Z,9.65
2017-07-18T05:26:02.688Z,7.70
2017-07-18T05:28:29.193Z,8.52
2017-07-18T05:30:55.641Z,7.30
2017-07-18T05:33:22.834Z,8.52
2017-07-18T05:35:49.286Z,8.00
2017-07-18T05:38:15.750Z,8.15
2017-07-18T05:40:42.198Z,8.30
2017-07-18T05:43:08.697Z,8.65
2017-07-18T05:45:35.145Z,7.87
2017-07-18T05:48:01.598Z,7.78
2017-07-18T05:50:28.080Z,7.65
2017-07-18T05:52:55.261Z,6.80
2017-07-18T05:55:23.014Z,6.72
2017-07-18T05:57:49.489Z,6.20
2017-07-18T06:00:15.937Z,6.87
2017-07-18T06:02:42.992Z,7.80
2017-07-18T06:05:09.612Z,6.80
2017-07-18T06:07:36.074Z,6.12
2017-07-18T06:10:02.517Z,6.45
2017-07-18T06:12:29.701Z,6.25
2017-07-18T06:14:56.133Z,6.70
2017-07-18T06:17:23.288Z,7.50
2017-07-18T06:19:49.802Z,6.60
2017-07-18T06:22:16.245Z,6.22
2017-07-18T06:24:42.805Z,7.13
2017-07-18T06:27:09.730Z,6.87
2017-07-18T06:29:36.321Z,6.28
2017-07-18T06:32:02.879Z,6.90
2017-07-18T06:34:29.543Z,6.30
2017-07-18T06:36:56.027Z,6.40
2017-07-18T06:39:22.479Z,6.20
2017-07-18T06:41:48.943Z,6.57
2017-07-18T06:44:15.448Z,6.00
2017-07-18T06:46:42.660Z,6.32
2017-07-18T06:49:24.135Z,6.03
2017-07-18T06:51:50.620Z,6.20
2017-07-18T06:54:17.054Z,6.10
2017-07-18T06:56:43.605Z,5.60
2017-07-18T06:59:10.139Z,6.07
2017-07-18T07:01:36.650Z,5.68
2017-07-18T07:04:03.152Z,6.20
2017-07-18T07:06:30.560Z,5.80
2017-07-18T07:08:57.007Z,6.25
2017-07-18T07:11:23.974Z,5.60
2017-07-18T07:13:56.744Z,5.75
2017-07-18T07:16:30.177Z,6.00
2017-07-18T07:19:04.473Z,5.60
2017-07-18T07:21:31.038Z,5.78
2017-07-18T07:23:58.295Z,5.85
2017-07-18T07:26:24.750Z,5.30
2017-07-18T07:28:51.362Z,5.53
2017-07-18T07:31:17.850Z,5.70
2017-07-18T07:33:44.354Z,5.70
2017-07-18T07:36:11.605Z,5.03
2017-07-18T07:38:38.107Z,5.05
2017-07-18T07:41:04.721Z,6.15
2017-07-18T07:43:31.554Z,5.12
2017-07-18T07:45:58.021Z,4.60
2017-07-18T07:48:24.503Z,4.20
2017-07-18T07:50:50.971Z,5.30
2017-07-18T07:53:18.082Z,5.12
2017-07-18T07:55:44.535Z,4.60
2017-07-18T07:58:10.976Z,4.95
2017-07-18T08:00:38.174Z,5.25
2017-07-18T08:03:04.611Z,6.07
2017-07-18T08:05:31.047Z,5.53
2017-07-18T08:07:58.243Z,6.70
2017-07-18T08:10:24.693Z,5.93
2017-07-18T08:12:51.142Z,5.78
2017-07-18T08:15:17.632Z,6.10
2017-07-18T08:17:44.061Z,6.12
2017-07-18T08:20:10.500Z,5.90
2017-07-18T08:22:37.692Z,5.65
2017-07-18T08:25:04.147Z,6.40
2017-07-18T08:27:30.585Z,6.10
2017-07-18T08:29:57.821Z,5.80
2017-07-18T08:32:24.336Z,5.80
2017-07-18T08:34:50.814Z,6.40
2017-07-18T08:37:17.226Z,5.20
2017-07-18T08:39:44.434Z,5.90
2017-07-18T08:42:10.854Z,5.73
2017-07-18T08:44:38.119Z,6.30
2017-07-18T08:47:05.316Z,6.00
2017-07-18T08:49:32.511Z,5.20
2017-07-18T08:51:58.995Z,4.57
2017-07-18T08:54:25.667Z,4.78
2017-07-18T08:56:52.152Z,5.30
2017-07-18T08:59:19.355Z,4.60
2017-07-18T09:01:45.903Z,4.60
2017-07-18T09:04:12.372Z,5.10
2017-07-18T09:06:38.833Z,4.90
2017-07-18T09:09:05.257Z,4.70
2017-07-18T09:11:32.436Z,5.37
2017-07-18T09:13:59.617Z,5.37
2017-07-18T09:16:26.273Z,4.60
2017-07-18T09:18:53.474Z,4.30
2017-07-18T09:21:19.994Z,4.50
2017-07-18T09:23:47.189Z,5.40
2017-07-18T09:26:13.650Z,4.93
2017-07-18T09:28:40.395Z,5.00
2017-07-18T09:31:06.952Z,5.30
2017-07-18T09:33:33.419Z,4.87
2017-07-18T09:35:59.879Z,5.00
2017-07-18T09:38:26.327Z,5.10
2017-07-18T09:40:52.755Z,4.78
2017-07-18T09:43:20.255Z,5.37
2017-07-18T09:45:46.705Z,5.12
2017-07-18T09:48:13.899Z,5.27
2017-07-18T09:50:40.954Z,5.00
2017-07-18T09:53:07.389Z,5.40
2017-07-18T09:55:35.241Z,5.05
2017-07-18T09:58:01.725Z,5.18
2017-07-18T10:02:55.711Z,6.10
2017-07-18T10:05:22.158Z,5.53
2017-07-18T10:07:50.340Z,5.70
2017-07-18T10:10:16.810Z,5.65
2017-07-18T10:12:43.356Z,5.97
2017-07-18T10:15:09.886Z,5.60
2017-07-18T10:17:36.695Z,5.50
2017-07-18T10:20:03.336Z,5.10
2017-07-18T10:22:29.787Z,5.10
2017-07-18T10:24:56.975Z,5.10
2017-07-18T10:27:23.425Z,4.47
2017-07-18T10:29:50.121Z,5.00
2017-07-18T10:32:16.642Z,4.90
2017-07-18T10:34:43.138Z,4.67
2017-07-18T10:37:09.593Z,5.00
2017-07-18T10:39:36.068Z,6.35
2017-07-18T10:42:02.540Z,4.95
2017-07-18T10:44:28.984Z,5.10
2017-07-18T10:46:55.793Z,6.37
2017-07-18T10:49:22.261Z,5.20
2017-07-18T10:51:48.801Z,4.80
2017-07-18T10:54:15.360Z,4.80
2017-07-18T10:56:41.806Z,5.00
2017-07-18T10:59:08.974Z,4.62
2017-07-18T11:01:36.811Z,5.00
2017-07-18T11:04:03.283Z,5.30
2017-07-18T11:06:29.723Z,4.80
2017-07-18T11:08:56.246Z,4.70
2017-07-18T11:11:23.435Z,4.97
2017-07-18T11:13:49.867Z,5.22
2017-07-18T11:16:16.376Z,5.43
2017-07-18T11:18:42.889Z,4.70
2017-07-18T11:21:09.488Z,5.70
2017-07-18T11:23:35.969Z,5.28
2017-07-18T11:26:02.549Z,5.55
2017-07-18T11:28:29.839Z,4.50
2017-07-18T11:30:56.282Z,6.10
2017-07-18T11:33:23.479Z,5.32
2017-07-18T11:35:49.989Z,4.85
2017-07-18T11:38:16.486Z,5.90
2017-07-18T11:40:43.046Z,5.17
2017-07-18T11:43:09.556Z,5.70
2017-07-18T11:45:36.363Z,5.68
2017-07-18T11:48:02.891Z,5.87
2017-07-18T11:50:29.479Z,6.10
2017-07-18T11:52:56.103Z,6.13
2017-07-18T11:55:22.567Z,6.20
2017-07-18T11:57:50.033Z,6.75
2017-07-18T12:00:16.673Z,7.60
2017-07-18T12:02:43.190Z,5.93
2017-07-18T12:05:09.753Z,6.22
2017-07-18T12:07:36.485Z,5.95
2017-07-18T12:10:02.989Z,6.37
2017-07-18T12:12:29.535Z,6.18
2017-07-18T12:14:56.229Z,6.40
2017-07-18T12:17:22.857Z,6.65
2017-07-18T12:19:49.306Z,6.05
2017-07-18T12:22:15.843Z,7.00
2017-07-18T12:24:43.649Z,6.00
2017-07-18T12:27:10.207Z,6.40
2017-07-18T12:29:36.670Z,6.30
2017-07-18T12:32:03.219Z,6.10
2017-07-18T12:34:29.688Z,6.30
2017-07-18T12:36:56.787Z,6.20
2017-07-18T12:39:23.229Z,6.45
2017-07-18T12:41:49.794Z,6.93
2017-07-18T12:44:16.260Z,6.10
2017-07-18T12:46:42.722Z,6.45
2017-07-18T12:49:09.230Z,6.60
2017-07-18T12:51:35.728Z,6.70
2017-07-18T12:54:02.248Z,6.62
2017-07-18T12:56:29.831Z,6.60
2017-07-18T12:58:56.297Z,6.53
2017-07-18T13:01:22.780Z,6.70
2017-07-18T13:03:49.707Z,6.93
2017-07-18T13:06:16.156Z,6.57
2017-07-18T13:08:43.364Z,6.62
2017-07-18T13:11:10.016Z,6.60
2017-07-18T13:13:36.504Z,6.50
2017-07-18T13:16:03.010Z,6.40
2017-07-18T13:18:29.455Z,6.53
2017-07-18T13:20:56.641Z,6.70
2017-07-18T13:23:23.073Z,6.85
2017-07-18T13:25:50.373Z,6.80
2017-07-18T13:28:16.845Z,6.80
2017-07-18T13:30:43.283Z,7.07
2017-07-18T13:33:09.772Z,6.55
2017-07-18T13:35:36.222Z,6.40
2017-07-18T13:38:02.755Z,6.80
2017-07-18T13:40:29.256Z,6.25
2017-07-18T13:42:55.730Z,6.40
2017-07-18T13:45:22.217Z,6.25
2017-07-18T13:47:48.679Z,6.37
2017-07-18T13:50:15.543Z,6.05
2017-07-18T13:52:42.026Z,6.20
2017-07-18T13:55:08.558Z,6.47
2017-07-18T13:57:34.978Z,5.80
2017-07-18T14:00:01.402Z,6.20
2017-07-18T14:02:27.892Z,6.53
2017-07-18T14:04:54.355Z,6.35
2017-07-18T14:07:20.787Z,5.90
2017-07-18T14:09:47.265Z,6.87
2017-07-18T14:12:14.496Z,6.30
2017-07-18T14:14:41.032Z,6.60
2017-07-18T14:17:07.476Z,5.90
2017-07-18T14:19:35.079Z,5.90
2017-07-18T14:22:01.521Z,6.10
2017-07-18T14:24:27.953Z,6.57
2017-07-18T14:26:55.133Z,6.05
2017-07-18T14:29:22.295Z,6.10
2017-07-18T14:31:48.715Z,6.50
2017-07-18T14:34:15.167Z,6.47
2017-07-18T14:36:42.202Z,7.10
2017-07-18T14:39:08.655Z,6.67
2017-07-18T14:41:35.138Z,6.57
2017-07-18T14:44:01.553Z,6.78
2017-07-18T14:46:28.767Z,6.80
2017-07-18T14:48:55.241Z,7.07
2017-07-18T14:51:21.867Z,6.60
2017-07-18T14:53:48.285Z,6.87
2017-07-18T14:56:14.774Z,6.75
2017-07-18T14:58:41.322Z,6.70
2017-07-18T15:01:08.564Z,6.60
2017-07-18T15:03:35.058Z,7.00
2017-07-18T15:06:01.501Z,7.65
2017-07-18T15:08:27.954Z,6.68
2017-07-18T15:10:55.348Z,6.93
2017-07-18T15:13:21.908Z,7.15
2017-07-18T15:15:48.357Z,7.27
2017-07-18T15:18:15.576Z,6.72
2017-07-18T15:20:42.058Z,7.50
2017-07-18T15:23:08.651Z,7.18
2017-07-18T15:25:35.160Z,7.05
2017-07-18T15:28:01.665Z,6.93
2017-07-18T15:30:28.115Z,7.12
2017-07-18T15:32:54.681Z,7.47
2017-07-18T15:35:21.240Z,7.72
2017-07-18T15:37:47.682Z,7.68
2017-07-18T15:40:14.140Z,7.70
2017-07-18T15:42:41.314Z,7.15
2017-07-18T15:45:07.808Z,7.07
2017-07-18T15:47:34.259Z,7.43
2017-07-18T15:50:00.691Z,7.45
2017-07-18T15:52:27.203Z,7.47
2017-07-18T15:54:53.863Z,7.03
2017-07-18T15:57:20.307Z,7.50
2017-07-18T15:59:46.736Z,7.50
2017-07-18T16:02:13.188Z,7.55
2017-07-18T16:04:40.760Z,7.40
2017-07-18T16:07:07.261Z,7.50
2017-07-18T16:09:34.195Z,7.15
2017-07-18T16:12:00.651Z,7.82
2017-07-18T16:14:27.191Z,6.95
2017-07-18T16:16:54.492Z,7.30
2017-07-18T16:19:21.036Z,7.97
2017-07-18T16:21:47.487Z,7.55
2017-07-18T16:24:13.986Z,7.65
2017-07-18T16:26:40.481Z,7.85
2017-07-18T16:29:07.632Z,8.07
2017-07-18T16:31:34.809Z,7.62
2017-07-18T16:34:01.349Z,8.48
2017-07-18T16:36:28.195Z,9.27
2017-07-18T16:38:54.674Z,8.15
2017-07-18T16:41:21.180Z,8.30
2017-07-18T16:43:47.836Z,8.30
2017-07-18T16:46:14.360Z,8.77
2017-07-18T16:48:40.802Z,8.02
2017-07-18T16:51:07.312Z,8.10
2017-07-18T16:53:34.091Z,7.50
2017-07-18T16:56:00.943Z,7.87
2017-07-18T16:58:27.431Z,7.85
2017-07-18T17:00:53.851Z,7.65
2017-07-18T17:03:20.327Z,8.10
2017-07-18T17:05:46.833Z,7.78
2017-07-18T17:08:13.428Z,8.30
2017-07-18T17:10:39.888Z,8.25
2017-07-18T17:13:06.353Z,7.90
2017-07-18T17:15:32.786Z,8.00
2017-07-18T17:18:00.046Z,8.07
2017-07-18T17:20:27.445Z,7.95
2017-07-18T17:22:54.111Z,8.10
2017-07-18T17:25:20.769Z,8.43
2017-07-18T17:27:47.430Z,8.40
2017-07-18T17:30:15.161Z,8.57
2017-07-18T17:32:41.805Z,8.50
2017-07-18T17:35:08.332Z,8.00
2017-07-18T17:37:34.808Z,8.00
2017-07-18T17:40:01.286Z,8.20
2017-07-18T17:42:28.220Z,8.30
2017-07-18T17:44:54.720Z,7.50
2017-07-18T17:47:21.224Z,8.65
2017-07-18T17:49:49.010Z,8.10
2017-07-18T17:52:15.520Z,8.40
2017-07-18T17:54:42.329Z,8.00
2017-07-18T17:57:08.798Z,8.02
2017-07-18T17:59:35.225Z,9.25
2017-07-18T18:02:03.055Z,10.55
2017-07-18T18:04:29.599Z,11.93
2017-07-18T18:06:56.070Z,18.20
2017-07-18T18:09:22.538Z,10.13
2017-07-18T18:11:49.060Z,8.98
2017-07-18T18:14:15.538Z,8.20
2017-07-18T18:16:41.998Z,8.07
2017-07-18T18:19:08.528Z,8.38
2017-07-18T18:21:35.002Z,9.07
2017-07-18T18:24:01.502Z,11.35
2017-07-18T18:26:27.989Z,9.65
2017-07-18T18:28:55.340Z,9.80
2017-07-18T18:31:21.842Z,9.40
2017-07-18T18:33:48.496Z,9.45
2017-07-18T18:36:15.260Z,8.10
2017-07-18T18:38:42.325Z,9.00
2017-07-18T18:41:09.501Z,8.52
2017-07-18T18:43:35.969Z,9.00
2017-07-18T18:46:02.513Z,8.88
2017-07-18T18:48:29.461Z,8.45
2017-07-18T18:50:57.031Z,8.80
2017-07-18T18:53:23.470Z,8.40
2017-07-18T18:55:50.080Z,8.85
2017-07-18T18:58:16.552Z,8.80
2017-07-18T19:00:43.022Z,8.90
2017-07-18T19:03:09.479Z,8.70
2017-07-18T19:08:30.004Z,8.32
2017-07-18T19:13:49.987Z,8.07
2017-07-18T19:16:16.444Z,8.70
2017-07-18T19:18:43.103Z,9.10
2017-07-18T19:21:09.972Z,8.70
2017-07-18T19:23:36.563Z,9.20
2017-07-18T19:26:03.087Z,9.05
2017-07-18T19:28:29.577Z,9.10
2017-07-18T19:30:56.305Z,8.90
2017-07-18T19:33:23.070Z,9.40
2017-07-18T19:35:50.241Z,9.00
2017-07-18T19:38:17.312Z,9.57
2017-07-18T19:40:43.831Z,9.50
2017-07-18T19:43:10.427Z,8.98
2017-07-18T19:45:37.304Z,8.80
2017-07-18T19:48:03.778Z,9.37
2017-07-18T19:50:30.366Z,9.35
2017-07-18T19:52:56.987Z,10.02
2017-07-18T19:55:24.042Z,9.30
2017-07-18T19:57:50.547Z,9.50
2017-07-18T20:00:17.012Z,9.48
2017-07-18T20:02:44.239Z,9.37
2017-07-18T20:05:10.884Z,9.60
2017-07-18T20:07:37.410Z,9.25
2017-07-18T20:10:04.002Z,10.05
2017-07-18T20:12:30.554Z,10.20
2017-07-18T20:14:57.978Z,10.10
2017-07-18T20:17:24.481Z,9.35
2017-07-18T20:19:50.957Z,10.25
2017-07-18T20:22:17.487Z,10.63
2017-07-18T20:24:59.620Z,12.45
2017-07-18T20:27:26.159Z,11.75
2017-07-18T20:29:53.367Z,11.90
2017-07-18T20:32:19.794Z,12.67
2017-07-18T20:34:47.079Z,11.35
2017-07-18T20:37:13.541Z,10.85
2017-07-18T20:39:40.244Z,10.85
2017-07-18T20:42:06.765Z,10.52
2017-07-18T20:44:33.422Z,11.80
2017-07-18T20:46:59.912Z,11.18
2017-07-18T20:49:26.365Z,10.60
2017-07-18T20:51:52.884Z,10.77
2017-07-18T20:54:20.054Z,11.20
2017-07-18T20:56:46.614Z,10.88
2017-07-18T20:59:13.119Z,10.98
2017-07-18T21:01:39.893Z,10.93
2017-07-18T21:04:06.370Z,11.48
2017-07-18T21:06:33.784Z,11.70
2017-07-18T21:09:00.251Z,11.27
2017-07-18T21:11:26.673Z,11.80
2017-07-18T21:13:53.878Z,12.07
2017-07-18T21:16:20.409Z,11.40
2017-07-18T21:18:47.325Z,11.70
2017-07-18T21:21:13.944Z,11.43
2017-07-18T21:23:40.903Z,10.90
2017-07-18T21:26:07.373Z,11.10
2017-07-18T21:28:33.919Z,11.60
2017-07-18T21:31:00.889Z,11.23
2017-07-18T21:33:27.367Z,12.00
2017-07-18T21:35:53.883Z,11.70
2017-07-18T21:38:21.085Z,11.20
2017-07-18T21:40:47.560Z,11.23
2017-07-18T21:43:14.067Z,11.43
2017-07-18T21:45:41.360Z,12.32
2017-07-18T21:48:07.881Z,11.40
2017-07-18T21:50:34.477Z,11.68
2017-07-18T21:53:00.973Z,11.90
2017-07-18T21:55:27.498Z,11.77
2017-07-18T21:57:54.590Z,11.30
2017-07-18T22:00:21.130Z,11.73
2017-07-18T22:02:47.633Z,12.10
2017-07-18T22:05:14.119Z,12.20
2017-07-18T22:07:41.353Z,12.02
2017-07-18T22:10:07.805Z,12.43
2017-07-18T22:12:34.233Z,11.60
2017-07-18T22:15:00.671Z,12.40
2017-07-18T22:17:27.949Z,12.10
2017-07-18T23:06:04.393Z,13.00
2017-07-18T23:08:30.871Z,12.70
2017-07-18T23:10:57.285Z,12.60
2017-07-18T23:13:24.559Z,12.98
2017-07-18T23:15:51.744Z,12.80
2017-07-18T23:18:18.917Z,13.13
2017-07-18T23:20:45.338Z,13.57
2017-07-18T23:23:11.760Z,12.90
2017-07-18T23:25:38.180Z,13.90
2017-07-18T23:28:04.624Z,13.10
2017-07-18T23:30:31.793Z,13.63
2017-07-18T23:32:58.923Z,13.40
2017-07-18T23:35:25.349Z,13.00
2017-07-18T23:37:51.808Z,13.30
2017-07-18T23:40:18.357Z,12.40
2017-07-18T23:42:44.812Z,12.80
2017-07-18T23:45:11.261Z,13.10
2017-07-18T23:47:38.544Z,13.30
2017-07-18T23:50:04.966Z,12.75
2017-07-18T23:52:31.403Z,13.38
2017-07-18T23:54:57.849Z,13.32
2017-07-18T23:57:24.679Z,12.82
2017-07-18T23:59:51.137Z,13.52
